Time;durP1;ratioP1;P1;durP2;ratioP2;P2;SDS_P1;SDS_P2;PMS_P1;PMS_P2;Temp;Humidity;BMP_temperature;BMP_pressure;BME280_temperature;BME280_humidity;BME280_pressure;Samples;Min_cycle;Max_cycle;Signal;HPM_P1;HPM_P2
2022/12/27 00:01:33;;;;;;;9.80;4.38;;;;;;;5.88;67.09;102104.31;5036828;28;20051;-64
2022/12/27 00:03:59;;;;;;;10.07;4.03;;;;;;;5.91;66.48;102112.22;5052200;28;20036;-64
2022/12/27 00:06:26;;;;;;;11.48;4.65;;;;;;;5.90;66.77;102121.53;5052518;28;20480;-64
2022/12/27 00:08:52;;;;;;;11.20;4.50;;;;;;;5.88;67.03;102126.34;5052892;28;20032;-64
2022/12/27 00:11:22;;;;;;;11.20;4.50;;;;;;;5.87;66.46;102125.50;5051726;28;20164;-64
2022/12/27 00:13:47;;;;;;;9.00;4.63;;;;;;;5.88;66.93;102123.59;5051105;28;20033;-64
2022/12/27 00:16:15;;;;;;;9.35;4.32;;;;;;;5.90;67.38;102135.31;5035856;28;20026;-64
2022/12/27 00:18:41;;;;;;;10.88;4.75;;;;;;;5.89;67.03;102128.06;5037497;28;20111;-64
2022/12/27 00:21:08;;;;;;;9.18;4.22;;;;;;;5.89;67.01;102133.56;5053046;28;20033;-64
2022/12/27 00:23:36;;;;;;;11.30;4.88;;;;;;;5.80;67.17;102123.69;5052547;28;20361;-64
2022/12/27 00:26:04;;;;;;;8.02;4.50;;;;;;;5.78;67.49;102129.41;5050211;28;20239;-64
2022/12/27 00:28:31;;;;;;;12.45;4.70;;;;;;;5.83;67.45;102123.34;5032884;28;20032;-64
2022/12/27 00:30:57;;;;;;;13.35;4.57;;;;;;;5.77;67.26;102126.84;5045366;28;20039;-64
2022/12/27 00:33:23;;;;;;;11.95;4.82;;;;;;;5.80;67.18;102123.69;5031734;28;20018;-64
2022/12/27 00:35:48;;;;;;;12.40;4.63;;;;;;;5.76;67.30;102125.13;5047666;28;20036;-64
2022/12/27 00:38:13;;;;;;;15.23;5.05;;;;;;;5.73;67.39;102122.75;5052749;28;20031;-64
2022/12/27 00:40:39;;;;;;;12.15;4.60;;;;;;;5.77;67.51;102129.59;5051682;28;20460;-64
2022/12/27 00:43:04;;;;;;;8.60;4.32;;;;;;;5.77;67.67;102133.19;5049661;28;20103;-64
2022/12/27 00:45:30;;;;;;;9.30;4.13;;;;;;;5.76;67.68;102137.00;5041832;28;20029;-64
2022/12/27 00:47:55;;;;;;;14.13;5.03;;;;;;;5.77;67.55;102130.44;5051349;28;20025;-64
2022/12/27 00:50:20;;;;;;;12.30;4.85;;;;;;;5.77;67.39;102137.84;5050125;28;20068;-64
2022/12/27 00:52:45;;;;;;;9.18;4.50;;;;;;;5.75;68.03;102134.44;5051367;28;20620;-64
2022/12/27 00:55:11;;;;;;;9.55;4.78;;;;;;;5.78;67.83;102134.94;5051805;28;20044;-64
2022/12/27 00:57:36;;;;;;;12.70;4.28;;;;;;;5.76;67.69;102139.75;5052112;28;20446;-64
2022/12/27 01:00:04;;;;;;;10.27;4.70;;;;;;;5.71;68.08;102142.22;5050741;28;20104;-64
2022/12/27 01:02:29;;;;;;;11.00;4.30;;;;;;;5.73;68.16;102150.28;5050914;28;20057;-64
2022/12/27 01:04:56;;;;;;;9.05;4.28;;;;;;;5.75;68.15;102156.50;5050506;28;20075;-64
2022/12/27 01:07:22;;;;;;;12.65;4.38;;;;;;;5.74;67.59;102160.25;5050769;28;20036;-64
2022/12/27 01:09:47;;;;;;;14.85;4.30;;;;;;;5.73;68.25;102155.81;5051768;28;20544;-64
2022/12/27 01:12:13;;;;;;;9.10;4.35;;;;;;;5.75;67.94;102160.09;5051363;28;20033;-64
2022/12/27 01:14:38;;;;;;;11.57;4.55;;;;;;;5.73;67.94;102158.56;5049745;28;20028;-64
2022/12/27 01:17:03;;;;;;;8.90;4.07;;;;;;;5.70;68.48;102167.19;5049836;28;20543;-64
2022/12/27 01:19:29;;;;;;;11.23;4.57;;;;;;;5.73;68.52;102161.31;5051645;28;20033;-64
2022/12/27 01:21:54;;;;;;;13.07;4.50;;;;;;;5.73;67.91;102166.81;5047391;28;20120;-64
2022/12/27 01:24:19;;;;;;;11.88;4.00;;;;;;;5.74;68.48;102168.53;5031743;28;20045;-64
2022/12/27 01:26:45;;;;;;;15.75;4.63;;;;;;;5.70;68.36;102172.72;5031638;28;20037;-64
2022/12/27 01:29:11;;;;;;;12.70;4.53;;;;;;;5.70;68.81;102168.09;5030891;28;20101;-64
2022/12/27 01:31:37;;;;;;;10.85;4.22;;;;;;;5.68;68.56;102170.16;5038497;28;20059;-64
2022/12/27 01:34:02;;;;;;;12.18;4.00;;;;;;;5.66;68.66;102173.09;5050331;28;20060;-64
2022/12/27 01:36:29;;;;;;;12.15;4.43;;;;;;;5.64;69.02;102174.34;5050193;28;20029;-64
2022/12/27 01:38:54;;;;;;;8.75;3.47;;;;;;;5.70;68.90;102178.22;5049752;28;20033;-64
2022/12/27 01:44:39;;;;;;;8.52;4.00;;;;;;;5.70;69.43;102183.72;5050548;28;20507;-64
2022/12/27 01:47:12;;;;;;;10.77;4.05;;;;;;;5.70;68.92;102183.72;5051379;28;20040;-64
2022/12/27 01:49:46;;;;;;;9.93;3.75;;;;;;;5.72;69.00;102184.41;5049897;28;20056;-64
2022/12/27 01:52:12;;;;;;;7.88;4.03;;;;;;;5.69;69.39;102182.88;5049899;28;20040;-64
2022/12/27 01:54:39;;;;;;;7.30;3.90;;;;;;;5.68;69.19;102191.34;5049089;28;20506;-63
2022/12/27 01:57:05;;;;;;;12.65;4.65;;;;;;;5.72;69.03;102199.03;5047255;28;20037;-64
2022/12/27 01:59:32;;;;;;;12.18;3.90;;;;;;;5.69;69.20;102199.41;5051074;28;20077;-63
2022/12/27 02:01:58;;;;;;;8.25;3.72;;;;;;;5.70;69.29;102212.16;5050881;28;20044;-64
2022/12/27 02:04:26;;;;;;;10.23;3.97;;;;;;;5.69;69.49;102204.91;5050358;28;20025;-64
2022/12/27 02:06:51;;;;;;;7.57;3.78;;;;;;;5.74;69.38;102213.50;5050739;28;20049;-64
2022/12/27 02:09:32;;;;;;;9.88;3.97;;;;;;;5.74;69.46;102207.97;5038784;28;20494;-64
2022/12/27 02:12:00;;;;;;;11.63;3.92;;;;;;;5.73;69.62;102213.66;5035226;28;20035;-64
2022/12/27 02:14:39;;;;;;;9.13;3.88;;;;;;;5.75;69.40;102217.09;5048201;28;20757;-64
2022/12/27 02:17:10;;;;;;;10.50;3.90;;;;;;;5.72;69.67;102220.22;5050131;28;20383;-65
2022/12/27 02:19:38;;;;;;;11.40;4.47;;;;;;;5.76;69.98;102216.03;5050743;28;20029;-64
2022/12/27 02:22:13;;;;;;;9.25;3.70;;;;;;;5.77;70.05;102218.59;5049118;28;20051;-64
2022/12/27 02:24:47;;;;;;;11.20;3.67;;;;;;;5.72;69.75;102214.72;5048729;28;20488;-64
2022/12/27 02:27:39;;;;;;;12.10;3.47;;;;;;;5.73;70.00;102216.41;5030732;28;20052;-64
2022/12/27 02:30:07;;;;;;;7.72;3.78;;;;;;;5.73;69.73;102219.16;5032548;28;20058;-64
2022/12/27 02:32:39;;;;;;;7.18;3.60;;;;;;;5.64;70.40;102224.75;5029815;28;20132;-64
2022/12/27 02:35:15;;;;;;;8.27;3.58;;;;;;;5.70;70.51;102222.28;5047079;28;20040;-65
2022/12/27 02:37:47;;;;;;;12.50;3.90;;;;;;;5.69;70.86;102221.44;5050420;28;20115;-64
2022/12/27 02:55:02;;;;;;;15.88;4.10;;;;;;;5.75;70.85;102226.22;5047080;28;20511;-64
2022/12/27 02:57:40;;;;;;;10.98;3.50;;;;;;;5.74;70.61;102223.63;5044457;28;20064;-64
2022/12/27 03:03:19;;;;;;;9.82;3.65;;;;;;;5.69;71.13;102223.34;5041439;28;20130;-64
2022/12/27 03:09:10;;;;;;;7.53;3.17;;;;;;;5.69;71.06;102221.44;5041032;28;20083;-64
2022/12/27 03:17:33;;;;;;;10.35;3.60;;;;;;;5.73;71.66;102221.94;5048486;28;20047;-64
2022/12/27 03:25:36;;;;;;;8.75;2.92;;;;;;;5.73;70.88;102235.69;5042923;28;20075;-64
2022/12/27 03:34:03;;;;;;;11.40;3.05;;;;;;;5.72;72.15;102245.03;5042121;28;20147;-65
2022/12/27 03:39:26;;;;;;;8.00;2.55;;;;;;;5.71;71.77;102254.34;5047320;28;20040;-64
2022/12/27 03:44:45;;;;;;;11.80;3.38;;;;;;;5.70;72.28;102261.75;5044392;28;20055;-64
2022/12/27 03:47:29;;;;;;;10.05;3.33;;;;;;;5.69;72.19;102256.41;5044909;28;20032;-64
2022/12/27 03:50:07;;;;;;;9.32;3.00;;;;;;;5.65;71.88;102256.78;5047563;28;20032;-64
2022/12/27 03:52:45;;;;;;;10.15;3.80;;;;;;;5.64;72.35;102257.81;5035035;28;20049;-64
2022/12/27 03:55:11;;;;;;;10.50;3.28;;;;;;;5.64;71.78;102262.47;5042773;28;20052;-64
2022/12/27 03:57:37;;;;;;;11.38;3.15;;;;;;;5.64;72.34;102262.47;5040424;28;20518;-64
2022/12/27 04:00:04;;;;;;;7.88;3.22;;;;;;;5.63;71.58;102272.63;5047692;28;20041;-64
2022/12/27 04:02:29;;;;;;;9.68;3.78;;;;;;;5.69;71.99;102270.19;5048078;28;20027;-64
2022/12/27 04:04:54;;;;;;;8.75;3.60;;;;;;;5.68;71.76;102271.22;5047438;28;20039;-64
2022/12/27 04:07:20;;;;;;;8.18;2.78;;;;;;;5.63;71.90;102275.41;5048500;28;20471;-64
2022/12/27 04:34:39;;;;;;;9.10;3.42;;;;;;;5.65;71.95;102273.28;5052457;28;20067;-64
2022/12/27 04:37:05;;;;;;;10.05;3.00;;;;;;;5.64;72.05;102267.97;5052635;28;20025;-64
2022/12/27 04:39:31;;;;;;;14.18;3.05;;;;;;;5.63;72.19;102271.78;5051355;28;20041;-64
2022/12/27 04:55:59;;;;;;;11.10;2.90;;;;;;;5.62;72.14;102298.47;5048668;28;20040;-64
2022/12/27 04:58:25;;;;;;;10.73;3.42;;;;;;;5.58;72.39;102294.38;5050202;28;20025;-65
2022/12/27 05:03:35;;;;;;;11.38;3.28;;;;;;;5.58;71.88;102304.53;5048376;28;20064;-64
2022/12/27 05:06:01;;;;;;;9.27;3.05;;;;;;;5.58;72.56;102308.16;5039475;28;20029;-64
2022/12/27 05:13:59;;;;;;;13.93;3.40;;;;;;;5.57;71.89;102300.06;5049101;28;20044;-64
2022/12/27 05:16:35;;;;;;;9.32;3.00;;;;;;;5.58;72.46;102299.91;5049076;28;20025;-64
2022/12/27 05:19:01;;;;;;;8.45;3.08;;;;;;;5.52;72.41;102297.88;5052116;28;20436;-64
2022/12/27 05:21:26;;;;;;;7.88;2.92;;;;;;;5.51;72.09;102298.91;5048566;28;20052;-64
2022/12/27 05:26:37;;;;;;;9.50;3.20;;;;;;;5.50;72.26;102310.09;5050509;28;20115;-64
2022/12/27 05:29:03;;;;;;;7.72;3.00;;;;;;;5.54;72.84;102314.19;5051036;28;20086;-64
2022/12/27 05:31:29;;;;;;;11.90;3.53;;;;;;;5.51;73.01;102318.19;5049831;28;20033;-64
2022/12/27 05:33:56;;;;;;;6.80;2.70;;;;;;;5.56;72.65;102325.91;5034537;28;20037;-64
2022/12/27 05:36:22;;;;;;;9.07;2.60;;;;;;;5.61;73.12;102327.03;5034283;28;20032;-64
2022/12/27 05:38:48;;;;;;;16.17;3.38;;;;;;;5.60;73.45;102332.75;5047605;28;20036;-64
2022/12/27 05:41:13;;;;;;;9.18;3.10;;;;;;;5.58;73.06;102330.19;5033208;28;20032;-64
2022/12/27 05:43:39;;;;;;;8.30;3.03;;;;;;;5.58;73.04;102334.81;5043172;28;20029;-64
2022/12/27 05:46:08;;;;;;;9.52;3.38;;;;;;;5.58;72.88;102340.31;5051224;28;20025;-64
2022/12/27 05:48:34;;;;;;;13.98;3.45;;;;;;;5.57;73.15;102342.22;5049770;28;20033;-64
2022/12/27 05:51:10;;;;;;;10.52;3.53;;;;;;;5.56;73.36;102346.03;5049806;28;20484;-64
2022/12/27 05:53:35;;;;;;;11.15;3.45;;;;;;;5.53;72.93;102351.91;5051549;28;20033;-64
2022/12/27 05:56:01;;;;;;;5.75;2.90;;;;;;;5.55;72.69;102360.84;5046655;28;20044;-64
2022/12/27 05:58:27;;;;;;;10.32;2.97;;;;;;;5.58;72.58;102354.09;5043309;28;20419;-64
2022/12/27 06:00:53;;;;;;;6.65;2.70;;;;;;;5.56;72.60;102364.47;5049316;28;20060;-64
2022/12/27 06:03:18;;;;;;;10.77;3.40;;;;;;;5.54;73.47;102372.91;5037878;28;20021;-64
2022/12/27 06:05:44;;;;;;;6.47;3.22;;;;;;;5.53;73.00;102371.19;5051038;28;20043;-64
2022/12/27 06:08:09;;;;;;;9.88;3.38;;;;;;;5.53;72.78;102373.06;5031961;28;20025;-64
2022/12/27 06:10:35;;;;;;;11.85;3.60;;;;;;;5.52;73.01;102357.59;5045407;28;20044;-64
2022/12/27 06:13:01;;;;;;;8.13;3.38;;;;;;;5.48;72.94;102357.09;5051190;28;20033;-64
2022/12/27 06:15:26;;;;;;;7.30;2.83;;;;;;;5.48;72.95;102364.53;5049266;28;20112;-64
2022/12/27 06:17:52;;;;;;;6.93;3.13;;;;;;;5.46;72.89;102361.94;5045857;28;20429;-64
2022/12/27 06:20:18;;;;;;;8.65;3.40;;;;;;;5.46;72.96;102363.81;5037070;28;20056;-64
2022/12/27 06:22:43;;;;;;;9.10;3.33;;;;;;;5.46;73.11;102364.69;5050126;28;20037;-64
2022/12/27 06:25:09;;;;;;;7.03;3.22;;;;;;;5.45;72.98;102360.22;5030843;28;20033;-64
2022/12/27 06:27:35;;;;;;;10.52;3.08;;;;;;;5.42;73.41;102357.81;5033216;28;20550;-64
2022/12/27 06:30:00;;;;;;;10.70;3.15;;;;;;;5.54;76.07;102356.38;5050074;28;20025;-65
2022/12/27 06:32:26;;;;;;;7.05;2.83;;;;;;;5.49;73.70;102363.47;5044342;28;20384;-65
2022/12/27 06:34:51;;;;;;;14.23;3.95;;;;;;;5.45;73.30;102364.88;5045888;28;20021;-65
2022/12/27 06:37:17;;;;;;;8.00;3.33;;;;;;;5.43;72.93;102370.56;5039602;28;20072;-66
2022/12/27 06:39:43;;;;;;;10.80;3.20;;;;;;;5.39;73.05;102364.56;5042959;28;20806;-65
2022/12/27 06:42:08;;;;;;;11.23;3.15;;;;;;;5.38;73.22;102364.75;5034905;28;20029;-66
2022/12/27 06:44:34;;;;;;;8.23;3.05;;;;;;;5.37;72.98;102355.63;5040681;28;20040;-67
2022/12/27 06:46:59;;;;;;;12.55;3.60;;;;;;;5.36;72.92;102364.94;5037470;28;20034;-66
2022/12/27 06:49:24;;;;;;;9.60;3.83;;;;;;;5.35;73.10;102367.88;5034130;28;20037;-66
2022/12/27 06:51:50;;;;;;;9.07;4.05;;;;;;;5.34;73.50;102366.13;5040595;28;20045;-66
2022/12/27 06:54:15;;;;;;;8.10;3.60;;;;;;;5.30;72.67;102364.78;5037134;28;20036;-67
2022/12/27 06:56:40;;;;;;;11.80;4.07;;;;;;;5.32;72.78;102369.09;5044098;28;20408;-67
2022/12/27 06:59:07;;;;;;;11.82;3.92;;;;;;;5.30;72.81;102364.78;5041755;28;20071;-67
2022/12/27 07:01:32;;;;;;;11.65;3.83;;;;;;;5.30;72.89;102365.66;5044553;28;20493;-67
2022/12/27 07:03:59;;;;;;;10.05;3.42;;;;;;;5.27;73.07;102367.94;5044527;28;20041;-67
2022/12/27 07:06:27;;;;;;;7.50;3.22;;;;;;;5.25;72.90;102367.25;5037686;28;20030;-66
2022/12/27 07:08:53;;;;;;;12.30;3.65;;;;;;;5.27;73.41;102370.69;5040401;28;20068;-67
2022/12/27 07:11:20;;;;;;;12.45;3.58;;;;;;;5.27;73.03;102378.94;5047685;28;20033;-69
2022/12/27 07:13:48;;;;;;;11.05;3.80;;;;;;;5.27;72.87;102378.94;5044434;28;20032;-68
2022/12/27 07:16:16;;;;;;;7.15;3.30;;;;;;;5.26;72.75;102379.97;5043700;28;20431;-69
2022/12/27 07:18:41;;;;;;;14.75;3.90;;;;;;;5.26;72.55;102379.97;5044270;28;20594;-68
2022/12/27 07:21:09;;;;;;;7.28;3.42;;;;;;;5.22;72.70;102386.88;5044383;28;20045;-69
2022/12/27 07:23:35;;;;;;;9.10;3.80;;;;;;;5.22;72.90;102381.34;5044897;28;20789;-69
2022/12/27 07:26:08;;;;;;;10.30;3.47;;;;;;;5.22;73.15;102379.47;5046308;28;20033;-68
2022/12/27 07:28:34;;;;;;;8.10;3.45;;;;;;;5.20;73.33;102387.06;5044882;28;20037;-69
2022/12/27 07:31:04;;;;;;;7.85;3.85;;;;;;;5.20;73.04;102391.72;5043504;28;20061;-66
2022/12/27 07:33:29;;;;;;;9.00;4.07;;;;;;;5.24;73.02;102393.91;5045319;28;20174;-67
2022/12/27 07:36:01;;;;;;;9.60;4.00;;;;;;;5.19;73.68;102396.34;5045813;28;20452;-66
2022/12/27 07:38:26;;;;;;;13.17;4.53;;;;;;;5.18;73.69;102400.97;5045067;28;20472;-67
2022/12/27 07:40:52;;;;;;;10.57;4.13;;;;;;;5.20;73.53;102392.56;5040802;28;20029;-67
2022/12/27 07:43:17;;;;;;;10.18;3.97;;;;;;;5.21;73.89;102398.91;5036729;28;20047;-67
2022/12/27 07:45:42;;;;;;;9.30;4.43;;;;;;;5.24;73.31;102387.56;5047572;28;20071;-66
2022/12/27 07:48:08;;;;;;;13.85;4.18;;;;;;;5.23;73.39;102396.84;5042054;28;20488;-66
2022/12/27 07:50:33;;;;;;;10.15;4.00;;;;;;;5.22;73.41;102395.97;5042219;28;20046;-67
2022/12/27 07:52:58;;;;;;;8.32;3.85;;;;;;;5.33;73.87;102402.97;5047123;28;20029;-69
2022/12/27 07:55:24;;;;;;;9.85;4.10;;;;;;;5.40;73.10;102399.31;5048648;28;20048;-67
2022/12/27 07:57:49;;;;;;;6.90;3.78;;;;;;;5.39;72.96;102396.75;5045727;28;20491;-68
2022/12/27 08:00:15;;;;;;;11.20;3.40;;;;;;;5.42;73.16;102399.13;5045117;28;20033;-66
2022/12/27 08:02:42;;;;;;;11.95;4.20;;;;;;;5.40;73.30;102396.56;5033536;28;20047;-64
2022/12/27 08:05:08;;;;;;;11.82;4.13;;;;;;;5.39;73.31;102407.78;5042524;28;20041;-68
2022/12/27 08:07:34;;;;;;;24.23;6.00;;;;;;;5.53;76.46;102403.38;5047153;28;20024;-67
2022/12/27 08:09:59;;;;;;;11.57;3.85;;;;;;;5.49;73.45;102407.53;5049567;28;20021;-69
2022/12/27 08:12:24;;;;;;;12.43;4.38;;;;;;;5.50;73.26;102404.63;5049791;28;20033;-67
2022/12/27 08:14:50;;;;;;;8.80;4.35;;;;;;;5.50;73.02;102417.50;5052681;28;20036;-68
2022/12/27 08:17:21;;;;;;;14.05;4.53;;;;;;;5.46;73.31;102417.00;5049676;28;20033;-65
2022/12/27 08:19:50;;;;;;;7.95;3.92;;;;;;;5.46;72.81;102425.25;5046342;28;20053;-60
2022/12/27 08:22:15;;;;;;;8.05;3.88;;;;;;;5.46;73.36;102424.41;5046708;28;20039;-60
2022/12/27 08:24:41;;;;;;;11.20;4.63;;;;;;;5.43;73.73;102424.78;5043499;28;20024;-60
2022/12/27 08:27:07;;;;;;;11.90;5.07;;;;;;;5.45;73.65;102423.56;5048962;28;20464;-67
2022/12/27 08:29:33;;;;;;;12.85;4.82;;;;;;;5.44;73.43;102427.34;5046291;28;20045;-66
2022/12/27 08:31:58;;;;;;;8.93;3.58;;;;;;;5.90;81.23;102427.41;5049997;28;20033;-67
2022/12/27 08:34:23;;;;;;;8.55;4.18;;;;;;;5.85;74.09;102436.19;5047117;28;20497;-67
2022/12/27 08:36:50;;;;;;;9.60;3.97;;;;;;;5.83;74.20;102434.69;5048975;28;20043;-68
2022/12/27 08:39:15;;;;;;;12.23;4.72;;;;;;;5.74;73.22;102435.78;5046084;28;20770;-67
2022/12/27 08:41:41;;;;;;;8.68;4.18;;;;;;;5.65;73.49;102419.28;5048216;28;20029;-67
2022/12/27 08:44:08;;;;;;;9.13;4.15;;;;;;;5.63;73.93;102421.38;5046462;28;20064;-67
2022/12/27 08:46:33;;;;;;;10.90;5.25;;;;;;;5.59;73.67;102414.53;5044578;28;20051;-67
2022/12/27 08:48:59;;;;;;;10.55;5.63;;;;;;;5.59;73.70;102411.78;5049810;28;20488;-67
2022/12/27 08:51:24;;;;;;;13.27;7.00;;;;;;;5.58;73.53;102414.69;5046190;28;20489;-66
2022/12/27 08:53:49;;;;;;;9.75;5.05;;;;;;;5.58;73.69;102406.44;5045595;28;20041;-66
2022/12/27 08:56:15;;;;;;;12.73;5.15;;;;;;;5.62;73.63;102410.56;5048005;28;20082;-66
2022/12/27 08:58:40;;;;;;;8.98;4.47;;;;;;;5.66;73.43;102420.19;5042144;28;20052;-66
2022/12/27 09:01:06;;;;;;;9.93;4.95;;;;;;;5.66;73.57;102426.53;5041621;28;20474;-66
2022/12/27 09:03:32;;;;;;;11.95;4.57;;;;;;;5.64;73.93;102414.84;5045241;28;20039;-66
2022/12/27 09:06:26;;;;;;;9.82;5.05;;;;;;;5.69;74.11;102422.53;5046555;28;20498;-65
2022/12/27 09:08:54;;;;;;;10.43;4.72;;;;;;;5.64;73.73;102425.84;5041046;28;20045;-66
2022/12/27 09:11:25;;;;;;;10.98;5.00;;;;;;;5.67;74.40;102416.38;5048159;28;20036;-67
2022/12/27 09:13:51;;;;;;;7.50;4.20;;;;;;;5.66;74.13;102415.53;5045582;28;20083;-67
2022/12/27 09:16:20;;;;;;;10.85;4.43;;;;;;;5.64;73.67;102417.59;5048370;28;20056;-66
2022/12/27 09:18:48;;;;;;;10.00;5.15;;;;;;;5.64;74.17;102423.09;5048410;28;20495;-67
2022/12/27 09:21:15;;;;;;;7.50;4.25;;;;;;;5.65;74.25;102421.19;5044218;28;20051;-66
2022/12/27 09:23:41;;;;;;;10.25;4.70;;;;;;;5.65;74.06;102426.69;5038956;28;20168;-68
2022/12/27 09:26:14;;;;;;;9.77;4.25;;;;;;;5.62;74.42;102419.69;5043051;28;20040;-67
2022/12/27 09:28:40;;;;;;;11.07;4.30;;;;;;;5.59;74.19;102422.78;5042480;28;20079;-68
2022/12/27 09:31:08;;;;;;;11.27;4.40;;;;;;;5.58;74.71;102432.09;5048651;28;20036;-67
2022/12/27 09:33:33;;;;;;;10.52;4.68;;;;;;;5.61;74.85;102425.34;5049763;28;20029;-67
2022/12/27 09:36:08;;;;;;;9.88;4.97;;;;;;;5.69;75.13;102424.44;5048255;28;20033;-67
2022/12/27 09:38:34;;;;;;;11.18;4.57;;;;;;;5.79;75.12;102433.34;5047288;28;20860;-67
2022/12/27 09:41:03;;;;;;;9.20;4.35;;;;;;;5.82;74.49;102431.09;5048418;28;20074;-67
2022/12/27 09:43:40;;;;;;;11.10;6.07;;;;;;;5.92;74.36;102441.88;5048015;28;20134;-67
2022/12/27 09:46:13;;;;;;;12.27;5.20;;;;;;;6.00;74.45;102439.06;5048748;28;20041;-67
2022/12/27 09:48:39;;;;;;;10.35;4.50;;;;;;;6.06;73.97;102432.81;5039229;28;20036;-62
2022/12/27 09:51:16;;;;;;;9.75;4.60;;;;;;;6.12;73.91;102440.34;5042460;28;20091;-69
2022/12/27 09:53:55;;;;;;;9.52;4.75;;;;;;;6.23;74.95;102443.72;5042563;28;20116;-69
2022/12/27 09:56:27;;;;;;;10.75;5.22;;;;;;;6.34;74.54;102435.00;5043734;28;20028;-68
2022/12/27 09:59:07;;;;;;;13.80;5.50;;;;;;;6.43;74.36;102438.53;5049034;28;20047;-68
2022/12/27 10:01:35;;;;;;;7.35;5.35;;;;;;;6.52;73.84;102438.25;5042925;28;20056;-68
2022/12/27 10:04:02;;;;;;;12.45;5.80;;;;;;;6.74;73.97;102435.63;5050979;28;20056;-68
2022/12/27 10:06:45;;;;;;;10.55;4.10;;;;;;;6.95;73.38;102437.63;5042904;28;20047;-68
2022/12/27 10:09:32;;;;;;;11.85;4.78;;;;;;;7.11;72.79;102442.94;5034534;28;20060;-61
2022/12/27 10:12:08;;;;;;;12.02;5.03;;;;;;;7.26;72.92;102438.28;5047562;28;20041;-65
2022/12/27 10:14:57;;;;;;;10.05;4.13;;;;;;;7.42;71.95;102447.41;5050320;28;20113;-65
2022/12/27 10:17:41;;;;;;;11.88;4.63;;;;;;;7.53;71.88;102442.22;5046815;28;20037;-66
2022/12/27 10:20:14;;;;;;;11.82;4.28;;;;;;;7.65;70.67;102438.97;5048330;28;20211;-65
2022/12/27 10:22:50;;;;;;;10.85;4.32;;;;;;;7.73;70.65;102441.59;5044520;28;20144;-65
2022/12/27 10:25:20;;;;;;;11.77;4.18;;;;;;;7.82;70.38;102434.88;5041889;28;20041;-61
2022/12/27 10:27:46;;;;;;;10.63;4.10;;;;;;;7.92;70.91;102432.66;5040928;28;20029;-63
2022/12/27 10:30:15;;;;;;;11.00;4.97;;;;;;;8.01;70.66;102427.84;5048922;28;20147;-64
2022/12/27 10:32:40;;;;;;;7.72;4.22;;;;;;;8.10;70.33;102430.31;5049198;28;20101;-64
2022/12/27 10:35:06;;;;;;;11.10;4.35;;;;;;;8.13;69.70;102440.09;5048908;28;20021;-64
2022/12/27 10:37:31;;;;;;;12.18;4.40;;;;;;;8.18;69.96;102434.00;5032755;28;20052;-64
2022/12/27 10:40:28;;;;;;;8.10;4.05;;;;;;;8.29;70.22;102433.44;5048791;28;20044;-64
2022/12/27 10:43:05;;;;;;;11.57;3.53;;;;;;;8.33;69.60;102432.88;5011992;28;20049;-65
2022/12/27 10:45:35;;;;;;;11.27;4.13;;;;;;;8.40;69.07;102438.47;5046827;28;20070;-64
2022/12/27 10:48:24;;;;;;;7.10;3.22;;;;;;;8.42;68.74;102430.84;5046420;28;20069;-64
2022/12/27 10:51:00;;;;;;;10.02;3.80;;;;;;;8.36;68.91;102426.91;5044924;28;20057;-63
2022/12/27 10:53:48;;;;;;;14.15;3.85;;;;;;;8.31;68.95;102428.56;5047766;28;20037;-64
2022/12/27 10:56:38;;;;;;;6.93;3.40;;;;;;;8.32;69.55;102444.97;5046215;28;20064;-67
2022/12/27 10:59:06;;;;;;;7.28;3.67;;;;;;;8.25;69.26;102443.19;5041125;28;20111;-63
2022/12/27 11:01:32;;;;;;;9.27;4.20;;;;;;;8.14;69.42;102444.59;5048680;28;20056;-65
2022/12/27 11:04:09;;;;;;;6.07;3.55;;;;;;;8.07;69.35;102449.19;5048953;28;20384;-66
2022/12/27 11:06:35;;;;;;;10.55;3.70;;;;;;;7.94;69.67;102432.47;5046337;28;20035;-63
2022/12/27 11:09:23;;;;;;;10.82;3.97;;;;;;;7.89;70.29;102438.59;5042429;28;20033;-62
2022/12/27 11:11:48;;;;;;;11.02;3.60;;;;;;;7.82;70.56;102424.72;5044588;28;20040;-67
2022/12/27 11:14:23;;;;;;;6.78;3.50;;;;;;;7.79;70.27;102427.88;5048727;28;20029;-63
2022/12/27 11:16:48;;;;;;;8.13;4.00;;;;;;;7.73;70.73;102420.34;5035058;28;20033;-61
2022/12/27 11:19:22;;;;;;;7.20;4.03;;;;;;;7.70;71.28;102411.59;5046585;28;20092;-62
2022/12/27 11:21:48;;;;;;;9.85;4.05;;;;;;;7.63;71.01;102420.69;5043607;28;20040;-61
2022/12/27 11:24:16;;;;;;;10.95;5.43;;;;;;;7.59;71.18;102415.75;5038695;28;20036;-65
2022/12/27 11:26:50;;;;;;;7.70;4.07;;;;;;;7.62;71.40;102412.56;5049500;28;20369;-65
2022/12/27 11:29:20;;;;;;;10.75;4.75;;;;;;;7.61;71.62;102422.75;5049716;28;20028;-65
2022/12/27 11:31:48;;;;;;;10.25;5.28;;;;;;;7.57;70.79;102415.91;5051208;28;20040;-66
2022/12/27 11:34:18;;;;;;;8.35;5.10;;;;;;;7.55;71.13;102418.03;5045011;28;20071;-66
2022/12/27 11:36:48;;;;;;;6.80;4.50;;;;;;;7.55;71.35;102419.94;5050341;28;20029;-64
2022/12/27 11:39:38;;;;;;;9.43;4.05;;;;;;;7.69;78.30;102416.25;5043118;28;20029;-66
2022/12/27 11:42:20;;;;;;;10.55;3.95;;;;;;;7.81;72.53;102413.84;5048798;28;20053;-64
2022/12/27 11:45:18;;;;;;;7.55;3.70;;;;;;;7.78;71.27;102414.22;5048567;28;20578;-64
2022/12/27 11:47:56;;;;;;;6.78;4.40;;;;;;;7.71;72.03;102414.19;5048848;28;20043;-64
2022/12/27 11:50:32;;;;;;;11.27;5.03;;;;;;;7.67;71.54;102414.78;5046609;28;20513;-65
2022/12/27 11:53:20;;;;;;;10.98;4.68;;;;;;;7.61;72.37;102411.72;5046697;28;20090;-65
2022/12/27 11:56:08;;;;;;;6.50;3.67;;;;;;;7.58;72.13;102412.13;5046070;28;20025;-64
2022/12/27 11:58:51;;;;;;;10.10;4.65;;;;;;;7.56;72.12;102405.06;5048972;28;20033;-65
2022/12/27 12:01:47;;;;;;;12.88;6.38;;;;;;;7.56;72.16;102402.31;5050347;28;20029;-67
2022/12/27 12:04:43;;;;;;;19.67;14.80;;;;;;;7.54;71.34;102398.88;5049666;28;20041;-66
2022/12/27 12:07:35;;;;;;;14.52;9.48;;;;;;;7.51;71.83;102402.91;5041109;28;20488;-66
2022/12/27 12:10:31;;;;;;;9.45;7.05;;;;;;;7.52;72.22;102401.00;5051134;28;20037;-67
2022/12/27 12:13:33;;;;;;;9.50;4.25;;;;;;;7.47;72.04;102386.91;5043413;28;20078;-66
2022/12/27 12:16:17;;;;;;;12.43;4.22;;;;;;;7.46;72.24;102388.78;5047015;28;20037;-63
2022/12/27 12:19:22;;;;;;;8.30;4.18;;;;;;;7.41;72.21;102376.63;5047367;28;20041;-63
2022/12/27 12:22:16;;;;;;;14.15;4.00;;;;;;;7.40;72.54;102373.00;5036088;28;20508;-64
2022/12/27 12:25:06;;;;;;;9.02;4.25;;;;;;;7.43;72.49;102369.88;5033487;28;20037;-64
2022/12/27 12:27:57;;;;;;;8.95;4.45;;;;;;;7.43;72.94;102378.16;5048385;28;20032;-63
2022/12/27 12:30:36;;;;;;;7.88;4.00;;;;;;;7.43;72.47;102380.03;5046930;28;20032;-64
2022/12/27 12:33:31;;;;;;;9.75;4.40;;;;;;;7.42;72.26;102379.19;5052173;28;20112;-63
2022/12/27 12:36:07;;;;;;;8.82;4.45;;;;;;;7.43;72.47;102386.44;5050244;28;20117;-64
2022/12/27 12:38:48;;;;;;;10.23;4.55;;;;;;;7.46;72.62;102374.97;5049330;28;20029;-63
2022/12/27 12:41:31;;;;;;;8.63;4.90;;;;;;;7.45;72.68;102367.75;5039380;28;20052;-64
2022/12/27 12:44:17;;;;;;;12.15;4.18;;;;;;;7.44;71.83;102365.19;5040307;28;20021;-63
2022/12/27 12:47:00;;;;;;;9.13;4.00;;;;;;;7.41;72.03;102360.06;5052831;28;20029;-63
2022/12/27 12:49:58;;;;;;;9.70;4.10;;;;;;;7.42;72.95;102356.22;5051147;28;20130;-64
2022/12/27 12:52:35;;;;;;;10.55;4.13;;;;;;;7.39;72.85;102354.75;5032051;28;20551;-63
2022/12/27 12:55:41;;;;;;;9.23;4.30;;;;;;;7.38;72.76;102339.19;5044213;28;20112;-63
2022/12/27 12:58:13;;;;;;;8.75;4.07;;;;;;;7.39;72.31;102340.94;5024709;28;20491;-63
2022/12/27 13:01:00;;;;;;;9.30;3.50;;;;;;;7.37;72.33;102326.44;5043806;28;20048;-63
2022/12/27 13:03:40;;;;;;;18.13;5.15;;;;;;;7.39;73.20;102318.81;5052710;28;20086;-63
2022/12/27 13:06:33;;;;;;;8.93;4.50;;;;;;;7.40;71.92;102309.47;5050597;28;20033;-64
2022/12/27 13:09:08;;;;;;;7.50;4.38;;;;;;;7.38;72.81;102311.56;5048822;28;20056;-64
2022/12/27 13:11:49;;;;;;;9.55;4.32;;;;;;;7.40;72.79;102303.94;5050254;28;20124;-64
2022/12/27 13:14:54;;;;;;;13.10;4.20;;;;;;;7.41;73.03;102308.41;5039565;28;20033;-64
2022/12/27 13:17:40;;;;;;;25.88;18.00;;;;;;;7.36;72.58;102297.13;5032115;28;20037;-64
2022/12/27 13:20:34;;;;;;;11.70;4.63;;;;;;;7.36;73.10;102303.50;5039838;28;20423;-64
2022/12/27 13:23:14;;;;;;;9.25;3.92;;;;;;;7.36;72.53;102295.19;5051802;28;20052;-64
2022/12/27 13:25:50;;;;;;;8.70;3.90;;;;;;;7.36;73.03;102297.13;5047021;28;20491;-64